createdAt,value
2019-01-24T00:00:25.482Z,-1.60
2019-01-24T00:02:54.642Z,-1.60
2019-01-24T00:05:23.587Z,-1.60
2019-01-24T00:07:52.518Z,-1.60
2019-01-24T00:10:21.378Z,-1.60
2019-01-24T00:12:50.410Z,-1.60
2019-01-24T00:15:19.322Z,-1.60
2019-01-24T00:17:48.719Z,-1.60
2019-01-24T00:20:17.806Z,-1.60
2019-01-24T00:22:46.994Z,-1.50
2019-01-24T00:25:15.844Z,-1.50
2019-01-24T00:27:44.973Z,-1.50
2019-01-24T00:30:14.514Z,-1.50
2019-01-24T00:32:43.631Z,-1.50
2019-01-24T00:35:13.113Z,-1.50
2019-01-24T00:37:41.976Z,-1.50
2019-01-24T00:40:12.949Z,-1.50
2019-01-24T00:42:42.039Z,-1.50
2019-01-24T00:45:11.696Z,-1.50
2019-01-24T00:47:41.082Z,-1.50
2019-01-24T00:50:10.316Z,-1.60
2019-01-24T00:52:39.506Z,-1.60
2019-01-24T00:55:10.818Z,-1.60
2019-01-24T00:57:40.708Z,-1.60
2019-01-24T01:00:21.397Z,-1.60
2019-01-24T01:02:50.366Z,-1.60
2019-01-24T01:05:19.723Z,-1.60
2019-01-24T01:07:48.761Z,-1.60
2019-01-24T01:10:18.390Z,-1.60
2019-01-24T01:12:47.605Z,-1.60
2019-01-24T01:15:17.947Z,-1.60
2019-01-24T01:17:46.898Z,-1.60
2019-01-24T01:20:18.128Z,-1.60
2019-01-24T01:22:47.059Z,-1.60
2019-01-24T01:25:16.014Z,-1.60
2019-01-24T01:27:45.313Z,-1.60
2019-01-24T01:30:24.302Z,-1.70
2019-01-24T01:32:53.957Z,-1.70
2019-01-24T01:35:22.894Z,-1.70
2019-01-24T01:37:52.257Z,-1.70
2019-01-24T01:40:21.382Z,-1.70
2019-01-24T01:42:50.332Z,-1.70
2019-01-24T01:45:20.654Z,-1.70
2019-01-24T01:47:49.579Z,-1.70
2019-01-24T01:50:20.701Z,-1.70
2019-01-24T01:52:49.537Z,-1.80
2019-01-24T01:55:18.824Z,-1.80
2019-01-24T01:57:47.718Z,-1.80
2019-01-24T02:00:18.758Z,-1.80
2019-01-24T02:02:47.913Z,-1.80
2019-01-24T02:05:16.866Z,-1.80
2019-01-24T02:07:45.695Z,-1.80
2019-01-24T02:10:20.414Z,-1.80
2019-01-24T02:12:49.827Z,-1.80
2019-01-24T02:15:19.738Z,-1.80
2019-01-24T02:17:48.854Z,-1.80
2019-01-24T02:20:19.808Z,-1.90
2019-01-24T02:22:48.988Z,-1.90
2019-01-24T02:25:17.886Z,-1.90
2019-01-24T02:27:46.912Z,-1.90
2019-01-24T02:30:27.317Z,-1.90
2019-01-24T02:32:56.435Z,-2.00
2019-01-24T02:35:25.604Z,-2.00
2019-01-24T02:37:54.543Z,-2.00
2019-01-24T02:40:23.663Z,-2.10
2019-01-24T02:42:52.491Z,-2.10
2019-01-24T02:45:22.495Z,-2.20
2019-01-24T02:47:51.475Z,-2.20
2019-01-24T02:50:20.912Z,-2.30
2019-01-24T02:52:49.864Z,-2.30
2019-01-24T02:55:18.800Z,-2.30
2019-01-24T02:57:47.648Z,-2.40
2019-01-24T03:00:18.904Z,-2.40
2019-01-24T03:02:47.869Z,-2.40
2019-01-24T03:05:18.377Z,-2.40
2019-01-24T03:07:47.786Z,-2.50
2019-01-24T03:10:16.956Z,-2.50
2019-01-24T03:12:45.845Z,-2.50
2019-01-24T03:15:16.454Z,-2.50
2019-01-24T03:17:45.338Z,-2.50
2019-01-24T03:20:15.044Z,-2.50
2019-01-24T03:22:43.958Z,-2.50
2019-01-24T03:25:13.046Z,-2.60
2019-01-24T03:27:42.058Z,-2.60
2019-01-24T03:30:13.741Z,-2.60
2019-01-24T03:32:42.518Z,-2.70
2019-01-24T03:35:14.416Z,-2.80
2019-01-24T03:37:43.467Z,-2.80
2019-01-24T03:40:13.265Z,-2.90
2019-01-24T03:42:42.111Z,-3.00
2019-01-24T03:45:12.635Z,-3.00
2019-01-24T03:47:41.555Z,-3.00
2019-01-24T03:50:13.211Z,-3.00
2019-01-24T03:52:42.403Z,-3.00
2019-01-24T03:55:11.629Z,-3.00
2019-01-24T03:57:40.806Z,-3.00
2019-01-24T04:00:15.931Z,-3.00
2019-01-24T04:02:45.287Z,-3.10
2019-01-24T04:05:14.656Z,-3.10
2019-01-24T04:07:43.735Z,-3.10
2019-01-24T04:10:14.885Z,-3.10
2019-01-24T04:12:43.911Z,-3.10
2019-01-24T04:15:14.900Z,-3.20
2019-01-24T04:17:43.745Z,-3.10
2019-01-24T04:20:13.326Z,-3.10
2019-01-24T04:22:42.591Z,-3.10
2019-01-24T04:25:11.962Z,-3.10
2019-01-24T04:27:41.246Z,-3.20
2019-01-24T04:30:13.026Z,-3.20
2019-01-24T04:32:42.047Z,-3.20
2019-01-24T04:35:11.354Z,-3.20
2019-01-24T04:37:40.442Z,-3.20
2019-01-24T04:40:11.863Z,-3.30
2019-01-24T04:42:40.935Z,-3.30
2019-01-24T04:45:10.982Z,-3.30
2019-01-24T04:47:39.822Z,-3.30
2019-01-24T04:50:10.389Z,-3.40
2019-01-24T04:52:39.476Z,-3.40
2019-01-24T04:55:10.101Z,-3.40
2019-01-24T04:57:39.044Z,-3.40
2019-01-24T05:00:13.013Z,-3.40
2019-01-24T05:02:41.896Z,-3.50
2019-01-24T05:05:10.811Z,-3.50
2019-01-24T05:07:39.842Z,-3.50
2019-01-24T05:10:08.787Z,-3.50
2019-01-24T05:12:37.533Z,-3.50
2019-01-24T05:15:07.056Z,-3.50
2019-01-24T05:17:36.083Z,-3.50
2019-01-24T05:20:06.704Z,-3.50
2019-01-24T05:22:35.540Z,-3.50
2019-01-24T05:25:05.696Z,-3.60
2019-01-24T05:27:34.554Z,-3.60
2019-01-24T05:30:03.554Z,-3.60
2019-01-24T05:32:32.350Z,-3.70
2019-01-24T05:35:01.137Z,-3.70
2019-01-24T05:37:30.164Z,-3.70
2019-01-24T05:39:59.070Z,-3.70
2019-01-24T05:42:28.167Z,-3.70
2019-01-24T05:44:57.267Z,-3.70
2019-01-24T05:47:26.266Z,-3.80
2019-01-24T05:49:55.279Z,-3.80
2019-01-24T05:52:24.371Z,-3.70
2019-01-24T05:54:53.438Z,-3.80
2019-01-24T05:57:22.427Z,-3.80
2019-01-24T05:59:51.271Z,-3.80
2019-01-24T06:02:20.290Z,-3.80
2019-01-24T06:04:49.375Z,-3.70
2019-01-24T06:07:18.632Z,-3.70
2019-01-24T06:09:47.919Z,-3.70
2019-01-24T06:12:16.777Z,-3.70
2019-01-24T06:14:45.607Z,-3.70
2019-01-24T06:17:14.505Z,-3.70
2019-01-24T06:19:43.591Z,-3.70
2019-01-24T06:22:12.525Z,-3.70
2019-01-24T06:24:41.315Z,-3.70
2019-01-24T06:27:10.595Z,-3.80
2019-01-24T06:29:39.367Z,-3.70
2019-01-24T06:32:08.656Z,-3.70
2019-01-24T06:34:37.669Z,-3.70
2019-01-24T06:37:07.148Z,-3.70
2019-01-24T06:39:36.048Z,-3.70
2019-01-24T06:42:05.212Z,-3.70
2019-01-24T06:44:34.050Z,-3.70
2019-01-24T06:47:02.895Z,-3.70
2019-01-24T06:49:31.663Z,-3.70
2019-01-24T06:52:00.558Z,-3.70
2019-01-24T06:54:29.812Z,-3.70
2019-01-24T06:56:58.649Z,-3.70
2019-01-24T06:59:27.975Z,-3.70
2019-01-24T07:01:56.879Z,-3.70
2019-01-24T07:04:25.657Z,-3.70
2019-01-24T07:06:55.019Z,-3.70
2019-01-24T07:09:24.156Z,-3.70
2019-01-24T07:11:53.237Z,-3.60
2019-01-24T07:14:22.164Z,-3.60
2019-01-24T07:16:50.927Z,-3.60
2019-01-24T07:19:19.782Z,-3.60
2019-01-24T07:21:48.580Z,-3.50
2019-01-24T07:24:17.431Z,-3.50
2019-01-24T07:26:46.227Z,-3.50
2019-01-24T07:29:15.095Z,-3.50
2019-01-24T07:31:44.496Z,-3.50
2019-01-24T07:34:13.347Z,-3.50
2019-01-24T07:36:42.492Z,-3.50
2019-01-24T07:39:11.587Z,-3.50
2019-01-24T07:41:40.647Z,-3.60
2019-01-24T07:44:09.675Z,-3.50
2019-01-24T07:46:39.076Z,-3.50
2019-01-24T07:49:08.080Z,-3.50
2019-01-24T07:51:37.254Z,-3.50
2019-01-24T07:54:06.363Z,-3.50
2019-01-24T07:56:35.329Z,-3.50
2019-01-24T07:59:04.370Z,-3.50
2019-01-24T08:01:33.247Z,-3.50
2019-01-24T08:04:02.238Z,-3.50
2019-01-24T08:06:31.336Z,-3.50
2019-01-24T08:09:00.129Z,-3.50
2019-01-24T08:11:29.242Z,-3.40
2019-01-24T08:13:58.319Z,-3.40
2019-01-24T08:16:27.354Z,-3.40
2019-01-24T08:18:56.388Z,-3.40
2019-01-24T08:21:25.181Z,-3.40
2019-01-24T08:23:54.478Z,-3.40
2019-01-24T08:26:23.268Z,-3.40
2019-01-24T08:28:52.379Z,-3.40
2019-01-24T08:31:21.460Z,-3.30
2019-01-24T08:33:50.718Z,-3.30
2019-01-24T08:36:19.569Z,-3.30
2019-01-24T08:38:48.350Z,-3.40
2019-01-24T08:41:17.187Z,-3.30
2019-01-24T08:43:46.125Z,-3.30
2019-01-24T08:46:15.075Z,-3.30
2019-01-24T08:48:43.848Z,-3.30
2019-01-24T08:51:12.705Z,-3.30
2019-01-24T08:53:41.487Z,-3.30
2019-01-24T08:56:10.602Z,-3.30
2019-01-24T08:58:39.462Z,-3.30
2019-01-24T09:01:08.251Z,-3.30
2019-01-24T09:03:37.375Z,-3.30
2019-01-24T09:06:06.530Z,-3.20
2019-01-24T09:08:35.721Z,-3.10
2019-01-24T09:11:04.883Z,-3.10
2019-01-24T09:13:33.971Z,-3.10
2019-01-24T09:16:03.163Z,-3.10
2019-01-24T09:18:31.945Z,-3.10
2019-01-24T09:21:00.975Z,-3.10
2019-01-24T09:23:29.954Z,-3.10
2019-01-24T09:25:58.817Z,-3.10
2019-01-24T09:28:27.918Z,-3.10
2019-01-24T09:30:56.711Z,-3.10
2019-01-24T09:33:25.471Z,-3.10
2019-01-24T09:35:54.307Z,-3.10
2019-01-24T09:38:23.175Z,-3.10
2019-01-24T09:40:51.968Z,-3.10
2019-01-24T09:43:20.752Z,-3.00
2019-01-24T09:45:50.048Z,-3.00
2019-01-24T09:48:19.493Z,-3.00
2019-01-24T09:50:48.370Z,-3.10
2019-01-24T09:53:17.206Z,-3.10
2019-01-24T09:55:46.443Z,-3.00
2019-01-24T09:58:15.508Z,-3.00
2019-01-24T10:00:44.503Z,-3.00
2019-01-24T10:03:13.490Z,-3.00
2019-01-24T10:05:42.318Z,-3.00
2019-01-24T10:08:11.330Z,-2.90
2019-01-24T10:10:40.175Z,-2.90
2019-01-24T10:13:09.416Z,-2.90
2019-01-24T10:15:38.706Z,-2.90
2019-01-24T10:18:07.643Z,-2.80
2019-01-24T10:20:36.666Z,-2.80
2019-01-24T10:23:05.782Z,-2.80
2019-01-24T10:25:36.787Z,-2.70
2019-01-24T10:28:05.771Z,-2.70
2019-01-24T10:30:34.915Z,-2.60
2019-01-24T10:33:04.013Z,-2.60
2019-01-24T10:35:32.875Z,-2.50
2019-01-24T10:38:01.960Z,-2.50
2019-01-24T10:40:32.126Z,-2.50
2019-01-24T10:43:01.088Z,-2.50
2019-01-24T10:45:30.470Z,-2.50
2019-01-24T10:47:59.472Z,-2.50
2019-01-24T10:50:28.610Z,-2.50
2019-01-24T10:52:58.017Z,-2.50
2019-01-24T10:55:28.110Z,-2.50
2019-01-24T10:57:59.566Z,-2.50
2019-01-24T11:00:33.924Z,-2.40
2019-01-24T11:03:04.488Z,-2.40
2019-01-24T11:05:33.801Z,-2.40
2019-01-24T11:08:03.108Z,-2.30
2019-01-24T11:10:32.229Z,-2.30
2019-01-24T11:13:01.215Z,-2.30
2019-01-24T11:15:30.818Z,-2.30
2019-01-24T11:17:59.586Z,-2.30
2019-01-24T11:20:28.674Z,-2.30
2019-01-24T11:22:57.567Z,-2.30
2019-01-24T11:25:26.727Z,-2.20
2019-01-24T11:27:55.902Z,-2.20
2019-01-24T11:30:26.461Z,-2.10
2019-01-24T11:32:55.855Z,-1.90
2019-01-24T11:35:27.349Z,-1.90
2019-01-24T11:37:56.601Z,-1.80
2019-01-24T11:40:25.798Z,-1.90
2019-01-24T11:42:54.612Z,-1.90
2019-01-24T11:45:25.710Z,-1.80
2019-01-24T11:47:54.726Z,-1.70
2019-01-24T11:50:23.590Z,-1.70
2019-01-24T11:52:52.485Z,-1.70
2019-01-24T11:55:21.791Z,-1.60
2019-01-24T11:57:51.154Z,-1.60
2019-01-24T12:00:33.881Z,-1.60
2019-01-24T12:03:02.935Z,-1.60
2019-01-24T12:05:31.707Z,-1.50
2019-01-24T12:08:00.637Z,-1.60
2019-01-24T12:10:29.874Z,-1.50
2019-01-24T12:12:58.716Z,-1.50
2019-01-24T12:15:27.915Z,-1.50
2019-01-24T12:17:57.039Z,-1.40
2019-01-24T12:20:26.354Z,-1.40
2019-01-24T12:22:55.601Z,-1.30
2019-01-24T12:25:24.529Z,-1.30
2019-01-24T12:27:53.479Z,-1.30
2019-01-24T12:30:30.412Z,-1.30
2019-01-24T12:32:59.811Z,-1.30
2019-01-24T12:35:29.930Z,-1.20
2019-01-24T12:38:00.093Z,-1.20
2019-01-24T12:40:29.011Z,-1.20
2019-01-24T12:42:58.543Z,-1.20
2019-01-24T12:45:29.957Z,-1.10
2019-01-24T12:47:59.070Z,-1.00
2019-01-24T12:50:28.489Z,-1.10
2019-01-24T12:52:57.826Z,-1.10
2019-01-24T12:55:26.789Z,-1.10
2019-01-24T12:57:55.726Z,-1.10
2019-01-24T13:00:29.965Z,-1.10
2019-01-24T13:02:58.826Z,-1.20
2019-01-24T13:05:28.006Z,-1.20
2019-01-24T13:07:56.906Z,-1.10
2019-01-24T13:10:26.351Z,-1.10
2019-01-24T13:12:55.488Z,-1.10
2019-01-24T13:15:26.608Z,-1.10
2019-01-24T13:17:55.610Z,-1.10
2019-01-24T13:20:24.946Z,-1.10
2019-01-24T13:22:53.897Z,-1.10
2019-01-24T13:25:28.011Z,-1.10
2019-01-24T13:27:57.323Z,-1.10
2019-01-24T13:30:28.280Z,-1.00
2019-01-24T13:32:57.277Z,-1.00
2019-01-24T13:35:26.789Z,-1.00
2019-01-24T13:37:56.203Z,-1.00
2019-01-24T13:40:27.358Z,-1.00
2019-01-24T13:42:56.620Z,-1.10
2019-01-24T13:45:27.414Z,-1.20
2019-01-24T13:47:56.315Z,-1.20
2019-01-24T13:50:25.224Z,-1.20
2019-01-24T13:52:54.605Z,-1.10
2019-01-24T13:55:24.014Z,-1.10
2019-01-24T13:57:53.192Z,-1.10
2019-01-24T14:00:27.654Z,-1.10
2019-01-24T14:03:00.385Z,-1.10
2019-01-24T14:05:29.540Z,-1.10
2019-01-24T14:07:59.098Z,-1.10
2019-01-24T14:10:29.003Z,-1.20
2019-01-24T14:12:58.215Z,-1.20
2019-01-24T14:15:30.525Z,-1.20
2019-01-24T14:18:02.259Z,-1.20
2019-01-24T14:20:31.121Z,-1.20
2019-01-24T14:23:00.378Z,-1.30
2019-01-24T14:25:29.424Z,-1.30
2019-01-24T14:27:58.591Z,-1.30
2019-01-24T14:30:27.617Z,-1.30
2019-01-24T14:32:56.575Z,-1.30
2019-01-24T14:35:25.478Z,-1.30
2019-01-24T14:37:54.640Z,-1.30
2019-01-24T14:40:23.556Z,-1.30
2019-01-24T14:42:52.310Z,-1.30
2019-01-24T14:45:22.665Z,-1.40
2019-01-24T14:47:51.544Z,-1.40
2019-01-24T14:50:22.361Z,-1.40
2019-01-24T14:52:51.800Z,-1.40
2019-01-24T14:55:20.725Z,-1.40
2019-01-24T14:57:50.113Z,-1.40
2019-01-24T15:00:30.226Z,-1.40
2019-01-24T15:02:59.152Z,-1.50
2019-01-24T15:05:28.083Z,-1.50
2019-01-24T15:07:57.558Z,-1.50
2019-01-24T15:10:26.767Z,-1.50
2019-01-24T15:12:56.088Z,-1.50
2019-01-24T15:15:25.304Z,-1.50
2019-01-24T15:17:54.176Z,-1.50
2019-01-24T15:20:23.309Z,-1.50
2019-01-24T15:22:52.423Z,-1.50
2019-01-24T15:25:21.497Z,-1.50
2019-01-24T15:27:50.410Z,-1.50
2019-01-24T15:30:21.233Z,-1.60
2019-01-24T15:32:50.154Z,-1.60
2019-01-24T15:35:19.079Z,-1.70
2019-01-24T15:37:54.098Z,-1.70
2019-01-24T15:40:21.224Z,-1.70
2019-01-24T15:42:50.061Z,-1.70
2019-01-24T15:45:19.093Z,-1.70
2019-01-24T15:47:48.787Z,-1.60
2019-01-24T15:50:20.831Z,-1.60
2019-01-24T15:52:50.026Z,-1.70
2019-01-24T15:55:19.535Z,-1.60
2019-01-24T15:57:49.132Z,-1.60
2019-01-24T16:00:22.968Z,-1.70
2019-01-24T16:02:51.929Z,-1.70
2019-01-24T16:05:20.888Z,-1.70
2019-01-24T16:07:50.783Z,-1.60
2019-01-24T16:10:20.602Z,-1.70
2019-01-24T16:12:49.816Z,-1.70
2019-01-24T16:15:27.094Z,-1.70
2019-01-24T16:17:56.143Z,-1.70
2019-01-24T16:20:25.538Z,-1.70
2019-01-24T16:22:54.462Z,-1.70
2019-01-24T16:25:24.609Z,-1.70
2019-01-24T16:27:54.232Z,-1.70
2019-01-24T16:30:28.006Z,-1.70
2019-01-24T16:32:57.113Z,-1.80
2019-01-24T16:35:26.080Z,-1.80
2019-01-24T16:37:54.938Z,-1.80
2019-01-24T16:40:24.807Z,-1.80
2019-01-24T16:42:53.762Z,-1.80
2019-01-24T16:45:24.556Z,-1.80
2019-01-24T16:47:53.537Z,-1.80
2019-01-24T16:50:23.062Z,-1.80
2019-01-24T16:52:52.029Z,-1.80
2019-01-24T16:55:21.061Z,-1.90
2019-01-24T16:57:50.430Z,-1.80
2019-01-24T17:00:24.391Z,-1.80
2019-01-24T17:02:53.326Z,-1.80
2019-01-24T17:05:22.234Z,-1.90
2019-01-24T17:07:51.158Z,-1.80
2019-01-24T17:10:20.680Z,-1.80
2019-01-24T17:12:49.615Z,-1.80
2019-01-24T17:15:18.571Z,-1.80
2019-01-24T17:17:47.471Z,-1.80
2019-01-24T17:20:18.750Z,-1.80
2019-01-24T17:22:47.773Z,-1.80
2019-01-24T17:25:17.692Z,-1.80
2019-01-24T17:27:46.674Z,-1.70
2019-01-24T17:30:18.344Z,-1.70
2019-01-24T17:32:47.519Z,-1.70
2019-01-24T17:35:16.550Z,-1.70
2019-01-24T17:37:45.466Z,-1.70
2019-01-24T17:40:17.888Z,-1.80
2019-01-24T17:42:47.477Z,-1.80
2019-01-24T17:45:16.482Z,-1.80
2019-01-24T17:47:45.382Z,-1.70
2019-01-24T17:50:14.351Z,-1.70
2019-01-24T17:52:43.255Z,-1.70
2019-01-24T17:55:14.811Z,-1.70
2019-01-24T17:57:43.550Z,-1.70
2019-01-24T18:00:16.386Z,-1.70
2019-01-24T18:02:45.544Z,-1.60
2019-01-24T18:05:14.502Z,-1.60
2019-01-24T18:07:43.491Z,-1.60
2019-01-24T18:10:15.538Z,-1.60
2019-01-24T18:12:44.357Z,-1.60
2019-01-24T18:15:16.456Z,-1.60
2019-01-24T18:17:45.464Z,-1.60
2019-01-24T18:20:18.286Z,-1.60
2019-01-24T18:22:48.486Z,-1.70
2019-01-24T18:25:17.489Z,-1.70
2019-01-24T18:27:46.707Z,-1.70
2019-01-24T18:30:18.158Z,-1.60
2019-01-24T18:32:47.199Z,-1.60
2019-01-24T18:35:16.182Z,-1.60
2019-01-24T18:37:45.108Z,-1.60
2019-01-24T18:40:17.222Z,-1.60
2019-01-24T18:42:46.565Z,-1.50
2019-01-24T18:45:18.292Z,-1.50
2019-01-24T18:47:47.486Z,-1.50
2019-01-24T18:50:18.730Z,-1.50
2019-01-24T18:52:47.750Z,-1.50
2019-01-24T18:55:16.798Z,-1.50
2019-01-24T18:57:46.203Z,-1.50
2019-01-24T19:00:18.755Z,-1.50
2019-01-24T19:02:47.701Z,-1.50
2019-01-24T19:05:16.638Z,-1.50
2019-01-24T19:07:45.596Z,-1.50
2019-01-24T19:10:14.666Z,-1.50
2019-01-24T19:12:43.922Z,-1.50
2019-01-24T19:15:15.707Z,-1.50
2019-01-24T19:17:45.316Z,-1.40
2019-01-24T19:20:15.286Z,-1.40
2019-01-24T19:22:44.374Z,-1.40
2019-01-24T19:25:13.542Z,-1.40
2019-01-24T19:27:42.774Z,-1.40
2019-01-24T19:30:18.738Z,-1.40
2019-01-24T19:32:47.909Z,-1.40
2019-01-24T19:35:17.131Z,-1.40
2019-01-24T19:37:46.710Z,-1.40
2019-01-24T19:40:16.903Z,-1.50
2019-01-24T19:42:45.723Z,-1.40
2019-01-24T19:45:17.206Z,-1.40
2019-01-24T19:47:46.335Z,-1.40
2019-01-24T19:50:17.675Z,-1.40
2019-01-24T19:52:46.568Z,-1.40
2019-01-24T19:55:15.704Z,-1.40
2019-01-24T19:57:45.107Z,-1.40
2019-01-24T20:00:16.835Z,-1.40
2019-01-24T20:02:46.096Z,-1.30
2019-01-24T20:05:16.279Z,-1.30
2019-01-24T20:07:45.449Z,-1.90
2019-01-24T20:10:16.920Z,-1.30
2019-01-24T20:12:45.983Z,-1.30
2019-01-24T20:15:17.366Z,-1.30
2019-01-24T20:17:46.452Z,-1.30
2019-01-24T20:20:15.376Z,-1.30
2019-01-24T20:22:44.137Z,-1.30
2019-01-24T20:25:15.147Z,-1.30
2019-01-24T20:27:44.262Z,-1.30
2019-01-24T20:30:19.688Z,-1.50
2019-01-24T20:32:49.202Z,-1.50
2019-01-24T20:35:26.427Z,-1.40
2019-01-24T20:37:55.277Z,-1.40
2019-01-24T20:40:24.775Z,-1.40
2019-01-24T20:42:53.799Z,-1.40
2019-01-24T20:45:22.814Z,-1.40
2019-01-24T20:47:51.732Z,-1.40
2019-01-24T20:50:20.659Z,-1.50
2019-01-24T20:52:49.812Z,-1.60
2019-01-24T20:55:18.681Z,-1.60
2019-01-24T20:57:47.594Z,-1.50
2019-01-24T21:00:18.738Z,-1.50
2019-01-24T21:02:47.649Z,-1.50
2019-01-24T21:05:18.264Z,-1.60
2019-01-24T21:07:47.262Z,-1.50
2019-01-24T21:10:21.425Z,-1.50
2019-01-24T21:12:50.611Z,-1.60
2019-01-24T21:15:19.987Z,-1.60
2019-01-24T21:17:49.051Z,-1.50
2019-01-24T21:20:20.225Z,-1.60
2019-01-24T21:22:49.599Z,-1.60
2019-01-24T21:25:19.496Z,-1.60
2019-01-24T21:27:48.436Z,-1.60
2019-01-24T21:30:22.923Z,-1.50
2019-01-24T21:32:52.083Z,-1.50
2019-01-24T21:35:20.994Z,-1.60
2019-01-24T21:37:50.139Z,-1.60
2019-01-24T21:40:19.640Z,-1.60
2019-01-24T21:42:48.707Z,-1.60
2019-01-24T21:45:22.615Z,-1.60
2019-01-24T21:47:51.547Z,-1.60
2019-01-24T21:50:22.308Z,-1.60
2019-01-24T21:52:51.188Z,-1.60
2019-01-24T21:55:20.420Z,-1.60
2019-01-24T21:57:49.607Z,-1.60
2019-01-24T22:00:20.709Z,-1.60
2019-01-24T22:02:50.126Z,-1.60
2019-01-24T22:05:19.429Z,-1.60
2019-01-24T22:07:48.548Z,-1.60
2019-01-24T22:10:22.644Z,-1.60
2019-01-24T22:12:51.779Z,-1.60
2019-01-24T22:15:22.163Z,-1.60
2019-01-24T22:17:51.074Z,-1.60
2019-01-24T22:20:20.227Z,-1.70
2019-01-24T22:22:49.130Z,-1.70
2019-01-24T22:25:20.686Z,-1.70
2019-01-24T22:27:49.635Z,-1.70
2019-01-24T22:30:21.403Z,-1.70
2019-01-24T22:32:50.294Z,-1.70
2019-01-24T22:35:19.151Z,-1.70
2019-01-24T22:37:48.087Z,-1.70
2019-01-24T22:40:17.214Z,-1.80
2019-01-24T22:42:46.112Z,-1.80
2019-01-24T22:45:17.631Z,-1.80
2019-01-24T22:47:46.787Z,-1.80
2019-01-24T22:50:16.128Z,-1.80
2019-01-24T22:52:45.143Z,-1.80
2019-01-24T22:55:14.535Z,-1.70
2019-01-24T22:57:43.444Z,-1.70
2019-01-24T23:00:35.663Z,-1.80
2019-01-24T23:03:04.971Z,-1.80
2019-01-24T23:05:33.743Z,-1.80
2019-01-24T23:08:02.848Z,-1.80
2019-01-24T23:10:32.198Z,-1.80
2019-01-24T23:13:01.499Z,-1.90
2019-01-24T23:15:30.405Z,-1.90
2019-01-24T23:17:59.232Z,-1.90
2019-01-24T23:20:27.987Z,-1.90
2019-01-24T23:22:56.760Z,-1.90
2019-01-24T23:25:25.515Z,-1.90
2019-01-24T23:27:54.507Z,-1.80
2019-01-24T23:30:23.346Z,-1.80
2019-01-24T23:32:52.475Z,-1.80
2019-01-24T23:35:21.310Z,-1.80
2019-01-24T23:37:52.443Z,-1.80
2019-01-24T23:40:21.063Z,-1.80
2019-01-24T23:42:49.910Z,-1.80
2019-01-24T23:45:18.790Z,-1.80
2019-01-24T23:47:47.650Z,-1.80
2019-01-24T23:50:16.600Z,-1.80
2019-01-24T23:52:45.340Z,-1.80
2019-01-24T23:55:14.492Z,-1.80
2019-01-24T23:57:43.320Z,-1.90
